Česky Dansk Deutsch English Español Suomi Français Magyar Italiano Nederlands norsk Polski Português svenska Türkçe

 

Het Weer

Ibadan (Nigeria)

17:00, 19 augustus 2016 (GMT)

 
WE
 
Home            
Ibadan Oshogbo Lagos / Ikeja Ilorin Save Bohicon Cotonou Parakou Tabligbo Bida Atakpame Lome Sokode Ho Niamtougou Ada Enugu Natitingou Kandi Akuse Port Harcourt Koforidua Yendi

Om een weerknop op uw website of weblog te plaatsen, copieer onderstaande code en plak die in uw pagina. In het eerste vakje staat HTML-code, in het tweede vakje UBB-code.


Add to Google

Details

Wind speed:2 bf, 5 kn, 2.6 m/s, 5.8 miles/h, 9.3 km/h
Wind direction:ESE, 120°
Visibility:Greater than 10000 m, 10 km, 32800 ft, 6.2 miles
Clouds:Aufgelockert bewölkt at 1100 ft, 335 m
Temperature:27°C, 81°F
Gefühlte Temperatur:31°C, 87°F
Dew-point:24°C, 75°F
Atmospheric pressure:1012 hPa, 759.1 mmHg, 29.88 inHg, 0.999 atm
Relative humidity:83.7 %
METAR:DNIB 191700Z 12005KT 9999 SCT011 27/24 Q1012

Snelkoppelingen

Actuele weersinformatie van de hele wereld. Voeg locaties toe met het plus (+) symbool. Deze snelkoppelingen kunnen worden toegevoegd aan Google.

Lid van de Technetium groep

website free tracking
StatCounter NetStat W3C Validator

02-10-2022 11:43:36
astro.technetium.be money.technetium.be phote.technetium.be tafeltennistafel.technetium.be www.ligfiets.net